Terminal Aerodrome Forecast
Issued by NWS

Home | Current Version | Previous Version | Graphics & Text | Print | Product List | Glossary On
Versions: 1 2 3 4 5 6 7 8 9 10 11 12 13 14 15 16 17
701
FTUS43 KLSX 251459 CCA
TAFSUS
TAF COR
KSUS 251459Z 2515/2612 28010KT P6SM FEW150
     FM251800 30011G19KT P6SM FEW150
     FM252300 31005KT P6SM FEW250=

USA.gov is the U.S. government's official web portal to all federal, state and local government web resources and services.